Time;durP1;ratioP1;P1;durP2;ratioP2;P2;SDS_P1;SDS_P2;PMS_P1;PMS_P2;Temp;Humidity;BMP_temperature;BMP_pressure;BME280_temperature;BME280_humidity;BME280_pressure;Samples;Min_cycle;Max_cycle;Signal;HPM_P1;HPM_P2
2021/01/07 00:01:34;;;;;;;22.03;12.30;;;;;;;;;;5058347;28;20520;-68
2021/01/07 00:04:01;;;;;;;20.30;11.57;;;;;;;;;;5058232;28;20472;-68
2021/01/07 00:06:28;;;;;;;21.13;11.50;;;;;;;;;;5058189;28;20438;-68
2021/01/07 00:08:55;;;;;;;18.87;10.73;;;;;;;;;;5058372;28;20477;-68
2021/01/07 00:11:23;;;;;;;19.07;10.90;;;;;;;;;;5057984;28;20445;-68
2021/01/07 00:13:50;;;;;;;19.20;11.00;;;;;;;;;;5058153;28;20461;-68
2021/01/07 00:16:17;;;;;;;21.93;11.30;;;;;;;;;;5058170;28;20462;-68
2021/01/07 00:18:45;;;;;;;19.10;11.03;;;;;;;;;;5057978;28;20444;-68
2021/01/07 00:21:12;;;;;;;20.83;11.40;;;;;;;;;;5058018;28;20454;-68
2021/01/07 00:23:39;;;;;;;21.40;12.07;;;;;;;;;;5058242;28;20429;-68
2021/01/07 00:26:06;;;;;;;18.97;11.30;;;;;;;;;;5057542;28;20464;-68
2021/01/07 00:28:33;;;;;;;20.03;11.00;;;;;;;;;;5058195;28;20450;-68
2021/01/07 00:31:00;;;;;;;23.00;11.10;;;;;;;;;;5057880;28;20442;-68
2021/01/07 00:33:30;;;;;;;20.43;10.93;;;;;;;;;;5058141;28;20442;-68
2021/01/07 00:35:58;;;;;;;18.53;10.83;;;;;;;;;;5057653;28;20469;-68
2021/01/07 00:38:25;;;;;;;21.23;11.60;;;;;;;;;;5057818;28;20504;-68
2021/01/07 00:40:52;;;;;;;26.37;12.03;;;;;;;;;;5057871;28;20453;-68
2021/01/07 00:43:18;;;;;;;21.30;11.27;;;;;;;;;;5058835;28;20521;-68
2021/01/07 00:45:45;;;;;;;26.73;12.70;;;;;;;;;;5058221;28;20473;-68
2021/01/07 00:48:12;;;;;;;22.70;12.57;;;;;;;;;;5058463;28;20450;-68
2021/01/07 00:50:39;;;;;;;21.20;12.00;;;;;;;;;;5058081;28;20501;-68
2021/01/07 00:53:07;;;;;;;19.20;11.87;;;;;;;;;;5057470;28;20805;-68
2021/01/07 00:55:34;;;;;;;21.63;12.10;;;;;;;;;;5057613;28;20924;-68
2021/01/07 00:58:02;;;;;;;21.13;11.60;;;;;;;;;;5057538;28;20528;-68
2021/01/07 01:00:29;;;;;;;19.43;11.00;;;;;;;;;;5057780;28;20445;-68
2021/01/07 01:02:55;;;;;;;21.23;11.40;;;;;;;;;;5057714;28;20434;-68
2021/01/07 01:05:22;;;;;;;21.20;12.17;;;;;;;;;;5057594;28;20458;-68
2021/01/07 01:07:49;;;;;;;22.43;10.70;;;;;;;;;;5057501;28;20468;-68
2021/01/07 01:10:17;;;;;;;19.47;11.60;;;;;;;;;;5057595;28;20524;-68
2021/01/07 01:12:44;;;;;;;19.63;11.23;;;;;;;;;;5057341;28;20449;-68
2021/01/07 01:15:12;;;;;;;21.07;11.70;;;;;;;;;;5057359;28;20465;-68
2021/01/07 01:17:39;;;;;;;23.57;12.23;;;;;;;;;;5057571;28;20448;-68
2021/01/07 01:20:07;;;;;;;18.93;10.57;;;;;;;;;;5057284;28;20480;-68
2021/01/07 01:22:34;;;;;;;18.87;11.17;;;;;;;;;;5057485;28;20458;-68
2021/01/07 01:25:02;;;;;;;19.87;11.70;;;;;;;;;;5057341;28;20897;-68
2021/01/07 01:27:30;;;;;;;24.07;10.63;;;;;;;;;;5056882;28;20453;-68
2021/01/07 01:29:57;;;;;;;21.27;11.57;;;;;;;;;;5057295;28;20564;-68
2021/01/07 01:32:24;;;;;;;20.87;11.53;;;;;;;;;;5057128;28;20449;-68
2021/01/07 01:34:52;;;;;;;19.27;10.97;;;;;;;;;;5057478;28;20960;-68
2021/01/07 01:37:19;;;;;;;21.00;11.33;;;;;;;;;;5057189;28;20445;-68
2021/01/07 01:39:46;;;;;;;20.20;11.83;;;;;;;;;;5057276;28;20438;-68
2021/01/07 01:42:13;;;;;;;21.40;11.53;;;;;;;;;;5056676;28;20928;-68
2021/01/07 01:44:41;;;;;;;21.17;12.10;;;;;;;;;;5057409;28;20500;-68
2021/01/07 01:47:08;;;;;;;22.20;12.20;;;;;;;;;;5057249;28;20518;-68
2021/01/07 01:49:35;;;;;;;19.73;11.17;;;;;;;;;;5057111;28;20561;-68
2021/01/07 01:52:02;;;;;;;21.17;10.97;;;;;;;;;;5057298;28;20532;-68
2021/01/07 01:54:28;;;;;;;20.80;11.37;;;;;;;;;;5056954;28;20480;-68
2021/01/07 01:56:58;;;;;;;18.67;11.87;;;;;;;;;;5056709;28;20448;-68
2021/01/07 01:59:25;;;;;;;20.20;11.87;;;;;;;;;;5056976;28;20441;-68
2021/01/07 02:01:53;;;;;;;19.73;11.00;;;;;;;;;;5057178;28;20459;-68
2021/01/07 02:04:20;;;;;;;20.00;10.63;;;;;;;;;;5057133;28;20976;-68
2021/01/07 02:06:48;;;;;;;22.00;10.77;;;;;;;;;;5060873;28;20455;-68
2021/01/07 02:09:14;;;;;;;18.80;10.53;;;;;;;;;;5060515;28;20983;-68
2021/01/07 02:11:42;;;;;;;17.07;10.07;;;;;;;;;;5060407;28;20455;-68
2021/01/07 02:14:08;;;;;;;18.87;10.23;;;;;;;;;;5060693;28;20473;-68
2021/01/07 02:16:35;;;;;;;17.17;8.60;;;;;;;;;;5060599;28;20441;-68
2021/01/07 02:19:03;;;;;;;17.63;10.30;;;;;;;;;;5060666;28;20928;-68
2021/01/07 02:21:36;;;;;;;16.57;9.27;;;;;;;;;;5060513;28;20455;-68
2021/01/07 02:24:03;;;;;;;18.57;10.17;;;;;;;;;;5060380;28;20441;-68
2021/01/07 02:26:31;;;;;;;18.27;9.13;;;;;;;;;;5060137;28;20447;-68
2021/01/07 02:28:58;;;;;;;17.53;10.30;;;;;;;;;;5060153;28;20807;-68
2021/01/07 02:31:24;;;;;;;13.63;8.93;;;;;;;;;;5060115;28;20488;-68
2021/01/07 02:33:51;;;;;;;15.33;10.00;;;;;;;;;;5060277;28;20484;-68
2021/01/07 02:36:18;;;;;;;16.30;9.87;;;;;;;;;;5060238;28;20472;-68
2021/01/07 02:38:46;;;;;;;15.87;8.90;;;;;;;;;;5059975;28;20544;-68
2021/01/07 02:41:13;;;;;;;21.23;10.00;;;;;;;;;;5060158;28;20994;-68
2021/01/07 02:43:40;;;;;;;19.10;10.37;;;;;;;;;;5059891;28;20928;-68
2021/01/07 02:46:07;;;;;;;17.73;9.63;;;;;;;;;;5060007;28;20472;-68
2021/01/07 02:48:34;;;;;;;20.20;10.83;;;;;;;;;;5059907;28;20468;-68
2021/01/07 02:51:01;;;;;;;18.17;9.97;;;;;;;;;;5060072;28;20520;-68
2021/01/07 02:53:28;;;;;;;19.57;10.57;;;;;;;;;;5059984;28;20966;-68
2021/01/07 02:55:56;;;;;;;19.07;11.07;;;;;;;;;;5059472;28;20505;-68
2021/01/07 02:58:37;;;;;;;17.90;10.83;;;;;;;;;;5059764;28;20453;-68
2021/01/07 03:01:04;;;;;;;21.77;10.77;;;;;;;;;;5059963;28;20445;-68
2021/01/07 03:03:31;;;;;;;19.90;10.70;;;;;;;;;;5059786;28;20464;-68
2021/01/07 03:05:58;;;;;;;19.87;11.27;;;;;;;;;;5059478;28;20475;-68
2021/01/07 03:08:24;;;;;;;22.83;10.60;;;;;;;;;;5059436;28;21008;-68
2021/01/07 03:10:51;;;;;;;23.07;11.93;;;;;;;;;;5059367;28;20488;-68
2021/01/07 03:13:19;;;;;;;27.33;11.07;;;;;;;;;;5059227;28;20788;-68
2021/01/07 03:15:46;;;;;;;18.00;10.40;;;;;;;;;;5059466;28;20560;-68
2021/01/07 03:18:13;;;;;;;20.73;11.00;;;;;;;;;;5058846;28;20501;-68
2021/01/07 03:20:40;;;;;;;18.90;10.37;;;;;;;;;;5059461;28;20525;-68
2021/01/07 03:23:07;;;;;;;19.70;11.20;;;;;;;;;;5059428;28;20477;-68
2021/01/07 03:25:34;;;;;;;21.23;10.03;;;;;;;;;;5059113;28;20527;-68
2021/01/07 03:28:01;;;;;;;23.27;10.70;;;;;;;;;;5059015;28;20517;-68
2021/01/07 03:30:29;;;;;;;20.57;10.73;;;;;;;;;;5059235;28;20500;-68
2021/01/07 03:32:56;;;;;;;17.80;10.80;;;;;;;;;;5058970;28;20780;-68
2021/01/07 03:35:23;;;;;;;21.87;10.10;;;;;;;;;;5058881;28;20572;-68
2021/01/07 03:37:50;;;;;;;18.87;9.77;;;;;;;;;;5058927;28;20473;-68
2021/01/07 03:40:17;;;;;;;18.00;9.00;;;;;;;;;;5058965;28;20452;-68
2021/01/07 03:42:44;;;;;;;19.40;9.63;;;;;;;;;;5058351;28;20493;-68
2021/01/07 03:45:12;;;;;;;18.87;10.30;;;;;;;;;;5058880;28;20469;-68
2021/01/07 03:47:40;;;;;;;16.37;8.87;;;;;;;;;;5058909;28;20445;-68
2021/01/07 03:50:07;;;;;;;13.60;7.87;;;;;;;;;;5058828;28;20485;-68
2021/01/07 03:52:34;;;;;;;17.30;8.73;;;;;;;;;;5058675;28;20532;-68
2021/01/07 03:55:01;;;;;;;20.40;9.57;;;;;;;;;;5058787;28;20552;-68
2021/01/07 03:57:28;;;;;;;19.50;9.90;;;;;;;;;;5058349;28;20458;-68
2021/01/07 03:59:55;;;;;;;19.03;9.80;;;;;;;;;;5058696;28;20495;-68
2021/01/07 04:02:22;;;;;;;14.73;8.70;;;;;;;;;;5058641;28;20463;-68
2021/01/07 04:04:50;;;;;;;18.20;9.50;;;;;;;;;;5058618;28;20470;-68
2021/01/07 04:07:17;;;;;;;17.80;10.07;;;;;;;;;;5058434;28;20538;-68
2021/01/07 04:09:44;;;;;;;17.63;9.37;;;;;;;;;;5058650;28;21068;-68
2021/01/07 04:12:11;;;;;;;18.07;9.60;;;;;;;;;;5058611;28;20495;-69
2021/01/07 04:14:38;;;;;;;20.57;9.93;;;;;;;;;;5058882;28;20465;-68
2021/01/07 04:17:05;;;;;;;16.53;9.27;;;;;;;;;;5058404;28;20536;-68
2021/01/07 04:19:32;;;;;;;15.73;8.87;;;;;;;;;;5058407;28;20470;-68
2021/01/07 04:22:00;;;;;;;17.03;9.30;;;;;;;;;;5058198;28;20810;-68
2021/01/07 04:24:27;;;;;;;17.33;9.57;;;;;;;;;;5058303;28;20476;-68
2021/01/07 04:26:54;;;;;;;17.53;9.53;;;;;;;;;;5057722;28;20884;-69
2021/01/07 04:29:21;;;;;;;17.53;9.80;;;;;;;;;;5057372;28;20441;-68
2021/01/07 04:31:48;;;;;;;16.50;9.27;;;;;;;;;;5058186;28;20567;-68
2021/01/07 04:34:15;;;;;;;13.83;8.97;;;;;;;;;;5058765;28;20473;-68
2021/01/07 04:36:42;;;;;;;19.07;9.33;;;;;;;;;;5059925;28;20468;-68
2021/01/07 04:39:10;;;;;;;20.83;9.83;;;;;;;;;;5058826;28;20477;-69
2021/01/07 04:41:37;;;;;;;19.70;9.20;;;;;;;;;;5059213;28;20492;-68
2021/01/07 04:44:04;;;;;;;18.23;10.53;;;;;;;;;;5059558;28;20592;-68
2021/01/07 04:46:32;;;;;;;18.10;9.73;;;;;;;;;;5058753;28;20449;-68
2021/01/07 04:48:59;;;;;;;17.77;8.70;;;;;;;;;;5058357;28;20450;-68
2021/01/07 04:51:26;;;;;;;15.27;9.63;;;;;;;;;;5057944;28;20563;-68
2021/01/07 04:53:54;;;;;;;16.73;8.33;;;;;;;;;;5057957;28;20495;-68
2021/01/07 04:56:21;;;;;;;18.03;9.33;;;;;;;;;;5057331;28;20532;-69
2021/01/07 04:58:48;;;;;;;24.27;8.23;;;;;;;;;;5057705;28;20481;-68
2021/01/07 05:01:15;;;;;;;16.77;8.43;;;;;;;;;;5057145;28;20438;-68
2021/01/07 05:03:44;;;;;;;20.10;9.27;;;;;;;;;;5056516;28;20495;-68
2021/01/07 05:06:12;;;;;;;17.93;10.03;;;;;;;;;;5053340;28;20461;-69
2021/01/07 05:08:39;;;;;;;18.30;9.40;;;;;;;;;;5054487;28;20533;-69
2021/01/07 05:11:06;;;;;;;19.03;9.33;;;;;;;;;;5056810;28;20487;-69
2021/01/07 05:13:34;;;;;;;20.37;9.60;;;;;;;;;;5057814;28;20445;-69
2021/01/07 05:16:01;;;;;;;21.60;9.87;;;;;;;;;;5057515;28;20461;-68
2021/01/07 05:18:28;;;;;;;16.73;9.73;;;;;;;;;;5057636;28;20476;-69
2021/01/07 05:20:56;;;;;;;19.50;9.60;;;;;;;;;;5057368;28;20512;-69
2021/01/07 05:23:23;;;;;;;16.30;8.53;;;;;;;;;;5057367;28;20884;-68
2021/01/07 05:25:55;;;;;;;17.90;9.50;;;;;;;;;;5056900;28;20497;-69
2021/01/07 05:28:22;;;;;;;19.30;9.70;;;;;;;;;;5056977;28;20456;-69
2021/01/07 05:30:50;;;;;;;20.33;9.87;;;;;;;;;;5057372;28;20484;-69
2021/01/07 05:33:18;;;;;;;17.77;9.67;;;;;;;;;;5057375;28;20448;-69
2021/01/07 05:35:45;;;;;;;16.30;9.20;;;;;;;;;;5057036;28;20560;-69
2021/01/07 05:38:12;;;;;;;15.73;9.73;;;;;;;;;;5057250;28;20496;-68
2021/01/07 05:40:39;;;;;;;18.90;9.73;;;;;;;;;;5059542;28;20446;-68
2021/01/07 05:43:09;;;;;;;17.33;9.27;;;;;;;;;;5061009;28;20452;-69
2021/01/07 05:45:37;;;;;;;16.93;8.63;;;;;;;;;;5060910;28;20459;-68
2021/01/07 05:48:06;;;;;;;16.43;9.57;;;;;;;;;;5061011;28;20477;-68
2021/01/07 05:50:36;;;;;;;17.83;9.33;;;;;;;;;;5060856;28;20498;-69
2021/01/07 05:53:03;;;;;;;17.17;8.37;;;;;;;;;;5061186;28;20477;-68
2021/01/07 05:55:30;;;;;;;14.50;9.07;;;;;;;;;;5062477;28;20469;-69
2021/01/07 05:57:58;;;;;;;17.47;9.67;;;;;;;;;;5066474;28;20502;-69
2021/01/07 06:00:28;;;;;;;15.23;8.67;;;;;;;;;;5059555;28;20469;-69
2021/01/07 06:02:57;;;;;;;19.63;8.93;;;;;;;;;;5060569;28;20463;-69
2021/01/07 06:05:25;;;;;;;16.73;9.80;;;;;;;;;;5060534;28;20834;-69
2021/01/07 06:07:53;;;;;;;15.47;9.87;;;;;;;;;;5060506;28;20541;-69
2021/01/07 06:10:20;;;;;;;19.93;9.13;;;;;;;;;;5060667;28;20491;-70
2021/01/07 06:12:47;;;;;;;20.30;10.50;;;;;;;;;;5060238;28;20450;-69
2021/01/07 06:15:16;;;;;;;17.43;10.03;;;;;;;;;;5060494;28;20461;-69
2021/01/07 06:17:43;;;;;;;29.87;9.97;;;;;;;;;;5060723;28;20524;-69
2021/01/07 06:20:14;;;;;;;16.97;9.33;;;;;;;;;;5060613;28;20445;-69
2021/01/07 06:22:44;;;;;;;17.43;8.13;;;;;;;;;;5060429;28;20467;-69
2021/01/07 06:25:13;;;;;;;22.33;10.30;;;;;;;;;;5060315;28;21049;-69
2021/01/07 06:27:41;;;;;;;17.53;10.23;;;;;;;;;;5060117;28;20509;-70
2021/01/07 06:30:32;;;;;;;19.43;11.07;;;;;;;;;;5060185;28;21062;-70
2021/01/07 06:33:03;;;;;;;21.27;10.20;;;;;;;;;;5035774;28;20468;-69
2021/01/07 06:35:33;;;;;;;17.70;8.90;;;;;;;;;;5060123;28;20544;-71
2021/01/07 06:38:01;;;;;;;21.83;10.00;;;;;;;;;;5059929;28;20581;-71
2021/01/07 06:40:28;;;;;;;18.23;10.50;;;;;;;;;;5059808;28;20433;-71
2021/01/07 06:42:56;;;;;;;18.90;9.97;;;;;;;;;;5057550;28;20824;-71
2021/01/07 06:45:23;;;;;;;18.53;9.23;;;;;;;;;;5059428;28;21068;-70
2021/01/07 06:47:52;;;;;;;16.93;9.97;;;;;;;;;;5059699;28;20988;-70
2021/01/07 06:50:19;;;;;;;18.53;9.83;;;;;;;;;;5059960;28;20991;-70
2021/01/07 06:52:46;;;;;;;19.23;11.13;;;;;;;;;;5058953;28;20448;-70
2021/01/07 06:55:15;;;;;;;18.43;10.00;;;;;;;;;;5059702;28;20469;-71
2021/01/07 06:57:43;;;;;;;19.13;9.27;;;;;;;;;;5059079;28;20449;-69
2021/01/07 07:00:11;;;;;;;18.37;9.83;;;;;;;;;;5059326;28;20468;-69
2021/01/07 07:02:38;;;;;;;20.87;10.77;;;;;;;;;;5059635;28;20448;-67
2021/01/07 07:05:07;;;;;;;23.10;10.17;;;;;;;;;;5059585;28;20508;-69
2021/01/07 07:07:58;;;;;;;21.33;9.93;;;;;;;;;;5059344;28;20437;-67
2021/01/07 07:10:57;;;;;;;18.80;9.97;;;;;;;;;;5044189;28;20485;-69
2021/01/07 07:13:28;;;;;;;19.80;10.00;;;;;;;;;;4997706;28;20448;-68
2021/01/07 07:16:00;;;;;;;17.23;9.90;;;;;;;;;;4997714;28;20494;-68
2021/01/07 07:18:32;;;;;;;18.80;10.97;;;;;;;;;;5028744;28;20445;-69
2021/01/07 07:20:59;;;;;;;22.73;10.87;;;;;;;;;;5059291;28;20514;-68
2021/01/07 07:23:41;;;;;;;21.17;11.00;;;;;;;;;;5059275;28;20472;-66
2021/01/07 07:26:10;;;;;;;20.23;10.27;;;;;;;;;;5058655;28;20462;-68
2021/01/07 07:28:42;;;;;;;19.93;10.27;;;;;;;;;;5058832;28;20503;-69
2021/01/07 07:31:09;;;;;;;19.50;11.13;;;;;;;;;;5059093;28;20481;-69
2021/01/07 07:33:37;;;;;;;21.37;10.73;;;;;;;;;;5058635;28;20437;-69
2021/01/07 07:36:04;;;;;;;19.83;10.60;;;;;;;;;;5058753;28;20529;-67
2021/01/07 07:38:33;;;;;;;23.37;10.57;;;;;;;;;;5058531;28;20888;-67
2021/01/07 07:41:01;;;;;;;19.67;10.27;;;;;;;;;;5058567;28;20446;-67
2021/01/07 07:43:29;;;;;;;17.67;10.87;;;;;;;;;;5058669;28;20454;-67
2021/01/07 07:45:57;;;;;;;20.37;11.57;;;;;;;;;;5058374;28;20556;-68
2021/01/07 07:48:25;;;;;;;18.20;10.37;;;;;;;;;;5058441;28;21002;-68
2021/01/07 07:51:03;;;;;;;19.77;10.67;;;;;;;;;;5058520;28;20512;-69
2021/01/07 07:53:30;;;;;;;18.53;10.50;;;;;;;;;;5058430;28;20528;-69
2021/01/07 07:55:57;;;;;;;19.83;10.97;;;;;;;;;;5057639;28;20473;-68
2021/01/07 07:58:25;;;;;;;20.37;11.40;;;;;;;;;;5056921;28;20429;-69
2021/01/07 08:00:53;;;;;;;23.00;11.90;;;;;;;;;;5058126;28;20479;-68
2021/01/07 08:03:24;;;;;;;19.80;11.30;;;;;;;;;;5057421;28;20902;-66
2021/01/07 08:05:52;;;;;;;19.83;9.93;;;;;;;;;;5058301;28;20484;-67
2021/01/07 08:08:22;;;;;;;18.33;9.33;;;;;;;;;;5058280;28;20446;-67
2021/01/07 08:10:49;;;;;;;20.07;11.67;;;;;;;;;;5057889;28;20487;-66
2021/01/07 08:13:19;;;;;;;20.63;9.70;;;;;;;;;;5058148;28;20951;-66
2021/01/07 08:15:49;;;;;;;18.50;10.00;;;;;;;;;;5057570;28;21024;-66
2021/01/07 08:18:17;;;;;;;24.07;11.43;;;;;;;;;;5059064;28;21014;-67
2021/01/07 08:20:45;;;;;;;20.87;10.13;;;;;;;;;;5060012;28;20469;-68
2021/01/07 08:23:13;;;;;;;23.27;10.37;;;;;;;;;;5059940;28;20445;-66
2021/01/07 08:25:41;;;;;;;18.00;10.00;;;;;;;;;;5059908;28;20921;-67
2021/01/07 08:28:11;;;;;;;21.47;10.90;;;;;;;;;;5059022;28;20451;-67
2021/01/07 08:30:39;;;;;;;23.50;11.13;;;;;;;;;;5058156;28;20488;-66
2021/01/07 08:33:08;;;;;;;18.97;11.07;;;;;;;;;;5058060;28;20449;-66
2021/01/07 08:35:36;;;;;;;16.57;9.63;;;;;;;;;;5057810;28;20497;-66
2021/01/07 08:38:04;;;;;;;18.10;10.30;;;;;;;;;;5057548;28;20477;-67
2021/01/07 08:40:32;;;;;;;20.80;9.73;;;;;;;;;;5057611;28;20445;-67
2021/01/07 08:43:10;;;;;;;15.83;9.27;;;;;;;;;;5057629;28;20517;-66
2021/01/07 08:45:41;;;;;;;16.77;9.10;;;;;;;;;;5057481;28;20465;-66
2021/01/07 08:48:09;;;;;;;20.10;9.73;;;;;;;;;;5057509;28;20540;-67
2021/01/07 08:50:36;;;;;;;18.00;9.47;;;;;;;;;;5057345;28;20929;-66
2021/01/07 08:53:10;;;;;;;20.13;9.90;;;;;;;;;;5057312;28;20446;-70
2021/01/07 08:55:50;;;;;;;19.30;9.73;;;;;;;;;;5056123;28;20480;-69
2021/01/07 08:58:24;;;;;;;19.83;10.07;;;;;;;;;;5055463;28;20441;-69
2021/01/07 09:00:51;;;;;;;17.03;10.10;;;;;;;;;;5057023;28;20433;-68
2021/01/07 09:03:18;;;;;;;18.27;10.67;;;;;;;;;;5057080;28;20820;-68
2021/01/07 09:05:45;;;;;;;19.57;9.90;;;;;;;;;;5057606;28;20504;-68
2021/01/07 09:08:14;;;;;;;17.23;9.47;;;;;;;;;;5057221;28;20444;-68
2021/01/07 09:10:42;;;;;;;18.30;9.47;;;;;;;;;;5056602;28;20584;-67
2021/01/07 09:13:19;;;;;;;21.87;10.57;;;;;;;;;;5057186;28;20933;-68
2021/01/07 09:15:46;;;;;;;18.43;10.57;;;;;;;;;;5060002;28;20504;-68
2021/01/07 09:18:17;;;;;;;20.47;10.50;;;;;;;;;;5061364;28;20447;-68
2021/01/07 09:20:44;;;;;;;23.00;9.90;;;;;;;;;;5061491;28;20441;-68
2021/01/07 09:23:14;;;;;;;18.13;8.90;;;;;;;;;;5061739;28;20475;-69
2021/01/07 09:25:42;;;;;;;17.80;9.47;;;;;;;;;;5061109;28;20509;-68
2021/01/07 09:28:09;;;;;;;21.90;10.33;;;;;;;;;;5061298;28;20556;-68
2021/01/07 09:30:36;;;;;;;17.37;9.80;;;;;;;;;;5060960;28;20477;-68
2021/01/07 09:33:03;;;;;;;21.20;9.57;;;;;;;;;;5061104;28;20528;-68
2021/01/07 09:35:30;;;;;;;22.90;10.47;;;;;;;;;;5060768;28;20465;-68
2021/01/07 09:38:00;;;;;;;18.93;10.57;;;;;;;;;;5060903;28;20477;-68
2021/01/07 09:40:27;;;;;;;19.77;10.70;;;;;;;;;;5060947;28;20480;-69
2021/01/07 09:42:55;;;;;;;23.23;11.03;;;;;;;;;;5060828;28;20890;-67
2021/01/07 09:45:22;;;;;;;23.43;10.20;;;;;;;;;;5060575;28;20481;-69
2021/01/07 09:47:50;;;;;;;18.40;10.10;;;;;;;;;;5061129;28;20441;-67
2021/01/07 09:50:19;;;;;;;21.70;10.57;;;;;;;;;;5060754;28;20900;-67
2021/01/07 09:52:46;;;;;;;17.67;9.73;;;;;;;;;;5061028;28;20449;-68
2021/01/07 09:55:13;;;;;;;21.53;10.20;;;;;;;;;;5060504;28;20460;-69
2021/01/07 09:57:46;;;;;;;20.80;10.03;;;;;;;;;;5060325;28;20451;-69
2021/01/07 10:00:15;;;;;;;21.93;11.30;;;;;;;;;;5060541;28;20449;-69
2021/01/07 10:02:42;;;;;;;21.30;10.83;;;;;;;;;;5060855;28;20484;-69
2021/01/07 10:05:10;;;;;;;23.33;12.27;;;;;;;;;;5060639;28;20470;-69
2021/01/07 10:07:37;;;;;;;20.73;10.40;;;;;;;;;;5060743;28;20441;-68
2021/01/07 10:10:05;;;;;;;21.80;10.07;;;;;;;;;;5060553;28;20528;-68
2021/01/07 10:12:32;;;;;;;19.20;9.73;;;;;;;;;;5060185;28;20452;-68
2021/01/07 10:14:59;;;;;;;20.00;10.87;;;;;;;;;;5060359;28;20489;-69
2021/01/07 10:17:29;;;;;;;18.10;9.90;;;;;;;;;;5060761;28;20557;-69
2021/01/07 10:19:56;;;;;;;18.60;9.43;;;;;;;;;;5061108;28;20449;-68
2021/01/07 10:22:24;;;;;;;19.63;9.23;;;;;;;;;;5061389;28;20488;-69
2021/01/07 10:24:55;;;;;;;22.40;10.83;;;;;;;;;;5060463;28;20484;-67
2021/01/07 10:27:22;;;;;;;19.83;9.87;;;;;;;;;;5058389;28;20444;-67
2021/01/07 10:29:50;;;;;;;23.80;10.47;;;;;;;;;;5060242;28;20449;-68
2021/01/07 10:32:18;;;;;;;26.37;12.40;;;;;;;;;;5059806;28;20530;-68
2021/01/07 10:34:47;;;;;;;18.47;11.00;;;;;;;;;;5060139;28;20556;-68
2021/01/07 10:37:14;;;;;;;18.83;10.33;;;;;;;;;;5059727;28;20503;-68
2021/01/07 10:39:42;;;;;;;17.67;10.63;;;;;;;;;;5060166;28;20476;-68
2021/01/07 10:42:10;;;;;;;22.63;10.43;;;;;;;;;;5059250;28;20556;-68
2021/01/07 10:44:38;;;;;;;21.13;10.80;;;;;;;;;;5059620;28;20544;-68
2021/01/07 10:47:08;;;;;;;23.87;10.07;;;;;;;;;;5060049;28;20452;-68
2021/01/07 10:49:42;;;;;;;26.27;11.20;;;;;;;;;;5059625;28;20433;-69
2021/01/07 10:52:24;;;;;;;19.97;10.40;;;;;;;;;;5059574;28;21011;-67
2021/01/07 10:54:57;;;;;;;19.37;10.70;;;;;;;;;;5057663;28;21002;-68
2021/01/07 10:57:39;;;;;;;19.07;11.00;;;;;;;;;;5059509;28;20444;-70
2021/01/07 11:00:07;;;;;;;21.10;11.50;;;;;;;;;;5059700;28;20821;-69
2021/01/07 11:02:52;;;;;;;17.70;11.10;;;;;;;;;;5059537;28;20445;-70
2021/01/07 11:05:20;;;;;;;22.50;11.63;;;;;;;;;;5029613;28;20497;-69
2021/01/07 11:07:51;;;;;;;24.20;12.90;;;;;;;;;;5059518;28;20445;-68
2021/01/07 11:10:20;;;;;;;26.23;11.80;;;;;;;;;;5059409;28;20509;-67
2021/01/07 11:12:53;;;;;;;20.90;11.60;;;;;;;;;;5059285;28;20451;-67
2021/01/07 11:15:21;;;;;;;20.53;11.47;;;;;;;;;;5059652;28;20508;-68
2021/01/07 11:17:51;;;;;;;26.73;12.23;;;;;;;;;;5059540;28;20437;-68
2021/01/07 11:20:19;;;;;;;19.13;11.20;;;;;;;;;;5059455;28;20449;-68
2021/01/07 11:22:46;;;;;;;19.77;10.43;;;;;;;;;;5058829;28;20803;-71
2021/01/07 11:25:14;;;;;;;25.73;12.83;;;;;;;;;;5058836;28;20553;-69
2021/01/07 11:27:42;;;;;;;25.83;13.80;;;;;;;;;;5058388;28;20521;-69
2021/01/07 11:30:10;;;;;;;23.70;12.77;;;;;;;;;;5057784;28;20452;-69
2021/01/07 11:32:38;;;;;;;23.77;12.60;;;;;;;;;;5056962;28;20497;-69
2021/01/07 11:35:07;;;;;;;22.13;11.67;;;;;;;;;;5057232;28;20546;-69
2021/01/07 11:37:40;;;;;;;20.80;11.60;;;;;;;;;;5056871;28;20894;-69
2021/01/07 11:40:08;;;;;;;25.50;13.27;;;;;;;;;;5058133;28;20479;-69
2021/01/07 11:42:51;;;;;;;24.17;13.43;;;;;;;;;;5057816;28;20441;-69
2021/01/07 11:45:20;;;;;;;20.73;12.63;;;;;;;;;;5058272;28;20583;-69
2021/01/07 11:47:52;;;;;;;26.10;12.50;;;;;;;;;;5058889;28;20959;-68
2021/01/07 11:50:20;;;;;;;27.50;12.93;;;;;;;;;;5058914;28;20472;-69
2021/01/07 11:52:47;;;;;;;24.07;11.63;;;;;;;;;;5058992;28;20456;-69
2021/01/07 11:55:14;;;;;;;21.17;12.37;;;;;;;;;;5057050;28;20482;-67
2021/01/07 11:57:42;;;;;;;19.73;10.77;;;;;;;;;;5070793;28;20464;-68
2021/01/07 12:00:13;;;;;;;26.77;11.00;;;;;;;;;;5058612;28;20956;-68
2021/01/07 12:02:41;;;;;;;22.00;10.70;;;;;;;;;;5060123;28;20524;-68
2021/01/07 12:05:09;;;;;;;21.13;10.90;;;;;;;;;;5055818;28;20840;-68
2021/01/07 12:07:51;;;;;;;17.93;10.00;;;;;;;;;;5058783;28;20479;-68
2021/01/07 12:10:18;;;;;;;17.20;10.50;;;;;;;;;;5058294;28;20536;-68
2021/01/07 12:12:47;;;;;;;19.30;10.83;;;;;;;;;;5056375;28;20984;-68
2021/01/07 12:15:16;;;;;;;15.83;10.10;;;;;;;;;;5055242;28;20847;-68
2021/01/07 12:17:43;;;;;;;18.13;8.90;;;;;;;;;;5058511;28;20499;-68
2021/01/07 12:20:11;;;;;;;13.87;8.90;;;;;;;;;;5058297;28;20429;-68
2021/01/07 12:22:39;;;;;;;16.03;8.23;;;;;;;;;;5058232;28;20437;-68
2021/01/07 12:25:07;;;;;;;14.87;8.33;;;;;;;;;;5058230;28;20461;-68
2021/01/07 12:27:37;;;;;;;20.00;7.93;;;;;;;;;;5057802;28;20820;-68
2021/01/07 12:30:05;;;;;;;13.80;7.03;;;;;;;;;;5058001;28;20441;-68
2021/01/07 12:32:34;;;;;;;12.53;7.40;;;;;;;;;;5057932;28;20539;-68
2021/01/07 12:35:06;;;;;;;12.23;8.20;;;;;;;;;;5057756;28;20475;-68
2021/01/07 12:37:42;;;;;;;12.83;7.40;;;;;;;;;;5057700;28;20972;-68
2021/01/07 12:40:10;;;;;;;11.93;7.03;;;;;;;;;;5057710;28;20459;-68
2021/01/07 12:42:41;;;;;;;15.43;7.77;;;;;;;;;;5057831;28;20940;-68
2021/01/07 12:45:10;;;;;;;11.27;7.43;;;;;;;;;;5057960;28;20461;-68
2021/01/07 12:47:38;;;;;;;14.10;7.80;;;;;;;;;;5048779;28;20449;-68
2021/01/07 12:50:06;;;;;;;14.90;7.67;;;;;;;;;;5057173;28;20476;-67
2021/01/07 12:52:34;;;;;;;15.87;8.53;;;;;;;;;;5057664;28;20542;-68
2021/01/07 12:55:01;;;;;;;14.87;8.97;;;;;;;;;;5057752;28;20461;-67
2021/01/07 12:57:35;;;;;;;15.97;8.30;;;;;;;;;;5057125;28;20450;-67
2021/01/07 13:00:05;;;;;;;15.43;8.70;;;;;;;;;;5067697;28;20508;-68
2021/01/07 13:02:33;;;;;;;17.10;8.43;;;;;;;;;;5062847;28;20468;-68
2021/01/07 13:05:08;;;;;;;12.87;8.00;;;;;;;;;;5063997;28;20543;-68
2021/01/07 13:07:37;;;;;;;15.20;8.20;;;;;;;;;;5052390;28;20509;-68
2021/01/07 13:10:05;;;;;;;13.83;8.00;;;;;;;;;;5057856;28;20445;-66
2021/01/07 13:12:33;;;;;;;9.97;6.87;;;;;;;;;;5057187;28;20517;-67
2021/01/07 13:15:01;;;;;;;12.77;6.83;;;;;;;;;;5057477;28;20480;-67
2021/01/07 13:17:29;;;;;;;14.17;8.20;;;;;;;;;;5057456;28;20964;-67
2021/01/07 13:19:56;;;;;;;12.27;7.57;;;;;;;;;;5057464;28;20857;-67
2021/01/07 13:22:25;;;;;;;14.40;7.77;;;;;;;;;;5057476;28;20491;-67
2021/01/07 13:24:52;;;;;;;15.23;7.77;;;;;;;;;;5057252;28;20461;-67
2021/01/07 13:27:20;;;;;;;14.23;7.27;;;;;;;;;;5057151;28;20464;-67
2021/01/07 13:29:47;;;;;;;14.30;7.53;;;;;;;;;;5057381;28;20471;-67
2021/01/07 13:32:14;;;;;;;16.47;8.13;;;;;;;;;;5056014;28;20509;-66
2021/01/07 13:34:41;;;;;;;14.67;7.53;;;;;;;;;;5054669;28;20817;-67
2021/01/07 13:37:11;;;;;;;14.40;7.43;;;;;;;;;;5055864;28;20520;-67
2021/01/07 13:39:38;;;;;;;14.83;7.40;;;;;;;;;;5053616;28;20436;-67
2021/01/07 13:42:06;;;;;;;11.80;6.50;;;;;;;;;;5055522;28;20437;-67
2021/01/07 13:44:33;;;;;;;24.03;13.77;;;;;;;;;;5055920;28;20465;-67
2021/01/07 13:47:01;;;;;;;15.10;7.77;;;;;;;;;;5055923;28;20525;-67
2021/01/07 13:49:30;;;;;;;17.33;8.87;;;;;;;;;;5056019;28;20445;-67
2021/01/07 13:51:58;;;;;;;13.40;8.17;;;;;;;;;;5055212;28;20484;-66
2021/01/07 13:54:25;;;;;;;12.67;7.67;;;;;;;;;;5055552;28;20457;-66
2021/01/07 13:56:54;;;;;;;11.87;7.90;;;;;;;;;;5054854;28;20449;-67
2021/01/07 13:59:21;;;;;;;13.50;7.50;;;;;;;;;;5056102;28;20514;-66
2021/01/07 14:01:48;;;;;;;13.97;7.70;;;;;;;;;;5058496;28;20445;-68
2021/01/07 14:04:16;;;;;;;12.20;6.97;;;;;;;;;;5058755;28;20477;-68
2021/01/07 14:06:44;;;;;;;11.20;7.10;;;;;;;;;;5058843;28;20444;-68
2021/01/07 14:09:15;;;;;;;10.60;6.93;;;;;;;;;;5058982;28;20463;-68
2021/01/07 14:11:46;;;;;;;11.33;6.93;;;;;;;;;;5058473;28;20550;-68
2021/01/07 14:14:16;;;;;;;14.37;7.83;;;;;;;;;;5058851;28;20475;-68
2021/01/07 14:16:44;;;;;;;14.93;8.17;;;;;;;;;;5058930;28;20505;-68
2021/01/07 14:19:12;;;;;;;13.20;7.53;;;;;;;;;;5059280;28;20536;-68
2021/01/07 14:21:40;;;;;;;10.07;6.80;;;;;;;;;;5059604;28;20442;-67
2021/01/07 14:24:11;;;;;;;13.87;7.80;;;;;;;;;;5060671;28;20473;-68
2021/01/07 14:26:47;;;;;;;13.83;7.87;;;;;;;;;;5059993;28;20449;-68
2021/01/07 14:29:18;;;;;;;12.03;7.40;;;;;;;;;;5060428;28;20449;-68
2021/01/07 14:31:45;;;;;;;11.90;8.23;;;;;;;;;;5060253;28;20488;-68